메인 페이지
METAR-TAF:

METAR-TAF

공항 :

롱뷰, 텍사스, 미국

위도: 32-23-26N, 경도: 094-42-50W, 고도: 111m

현재 날씨관측

예보는 43분 전, 21:53시(UTC)에 발표되었습니다.
9kt
온도 16°C
습도 77%
기압 1014 hPa
시정: 16.1km
고도 1500ft 상공 흐림

METAR: KGGG 252153Z 09009KT 10SM OVC015 16/12 A2993 RMK AO2 SLP133 T01560117

시각: 17:36 (22:36 UTC)

예보

예보는 2 시간 40분 전, 19:56시(UTC)에 발표되었습니다.
예보 대상 시간: 25일 20시부터 26일 18시까지 (UTC)
7kt
시정: 10km
고도 900ft 상공 흐림
25일 2100시부터 (UTC)
남동7kt
시정: 10km
고도 2500ft 상공 구름 많음
26일 0300시부터 (UTC)
동남동6kt
시정: 10km
고도 1200ft 상공 흐림
26일 0600시부터 (UTC)
6kt
시정: 10km
고도 700ft 상공 흐림
26일 1500시부터 (UTC)
동남동10kt
시정: 10km
고도 1000ft 상공 흐림

TAF: KGGG 251956Z 2520/2618 08007KT P6SM OVC009 FM252100 14007KT P6SM BKN025 FM260300 11006KT P6SM OVC012 FM260600 10006KT P6SM OVC007 FM261500 11010KT P6SM OVC010

4,000개 이상의 공항 관측 자료 및 예보 (METAR 및 TAF 보고).

지도상에서 검색 가능한 기상관측소가 노란 점과 빨간 점으로 표시되어 있습니다.

기상관측소 명을 보려면 표시 위로 마우스를 이동하세요.

날씨 관측과 예보를 보려면 클릭하세요.

지도 변경 : 확대하려면 엑스 표시가 있는 녹색 버튼, 축소하려면 빼기 표시가 있는 녹색 버튼, 다음 페이지의 지도를 보려면 녹색 화살표를 클릭하세요.


METAR-TAF: